sensor_id;sensor_type;location;lat;lon;timestamp;temperature;humidity
68189;DHT22;66299;47.514;19.218;2023-08-07T20:16:25;14.58;86.41
68189;DHT22;66299;47.514;19.218;2023-08-07T20:18:56;14.60;85.99
68189;DHT22;66299;47.514;19.218;2023-08-07T20:21:26;14.67;85.60
68189;DHT22;66299;47.514;19.218;2023-08-07T20:23:54;14.65;85.56
68189;DHT22;66299;47.514;19.218;2023-08-07T20:26:23;14.58;85.85
68189;DHT22;66299;47.514;19.218;2023-08-07T20:28:52;14.63;85.29
68189;DHT22;66299;47.514;19.218;2023-08-07T20:31:22;14.58;85.86
68189;DHT22;66299;47.514;19.218;2023-08-07T20:33:56;14.69;84.80
68189;DHT22;66299;47.514;19.218;2023-08-07T20:36:31;14.74;84.89
68189;DHT22;66299;47.514;19.218;2023-08-07T20:39:02;14.58;85.15
68189;DHT22;66299;47.514;19.218;2023-08-07T20:41:34;14.69;84.79
68189;DHT22;66299;47.514;19.218;2023-08-07T20:44:08;14.65;85.14
68189;DHT22;66299;47.514;19.218;2023-08-07T20:46:39;14.58;85.22
68189;DHT22;66299;47.514;19.218;2023-08-07T20:49:11;14.56;85.49
68189;DHT22;66299;47.514;19.218;2023-08-07T20:51:40;14.41;86.14
68189;DHT22;66299;47.514;19.218;2023-08-07T20:54:20;14.37;86.49
68189;DHT22;66299;47.514;19.218;2023-08-07T20:56:52;14.28;86.76
68189;DHT22;66299;47.514;19.218;2023-08-07T20:59:22;14.36;86.42
68189;DHT22;66299;47.514;19.218;2023-08-07T21:01:53;14.30;86.45
68189;DHT22;66299;47.514;19.218;2023-08-07T21:04:27;14.27;86.65
68189;DHT22;66299;47.514;19.218;2023-08-07T21:06:57;14.17;87.25
68189;DHT22;66299;47.514;19.218;2023-08-07T21:09:28;14.19;86.82
68189;DHT22;66299;47.514;19.218;2023-08-07T21:11:57;14.17;86.81
68189;DHT22;66299;47.514;19.218;2023-08-07T21:14:35;14.24;86.67
68189;DHT22;66299;47.514;19.218;2023-08-07T21:17:11;14.34;86.08
68189;DHT22;66299;47.514;19.218;2023-08-07T21:19:45;14.37;85.88
68189;DHT22;66299;47.514;19.218;2023-08-07T21:22:15;14.45;85.42
68189;DHT22;66299;47.514;19.218;2023-08-07T21:24:46;14.48;85.20
68189;DHT22;66299;47.514;19.218;2023-08-07T21:27:15;14.47;84.99
68189;DHT22;66299;47.514;19.218;2023-08-07T21:29:44;14.38;85.65
68189;DHT22;66299;47.514;19.218;2023-08-07T21:32:12;14.40;85.40
68189;DHT22;66299;47.514;19.218;2023-08-07T21:34:45;14.33;86.05
68189;DHT22;66299;47.514;19.218;2023-08-07T21:37:17;14.31;85.47
68189;DHT22;66299;47.514;19.218;2023-08-07T21:39:51;14.27;85.84
68189;DHT22;66299;47.514;19.218;2023-08-07T21:42:22;14.27;85.82
68189;DHT22;66299;47.514;19.218;2023-08-07T21:44:57;14.28;85.81
68189;DHT22;66299;47.514;19.218;2023-08-07T21:47:26;14.23;85.83
68189;DHT22;66299;47.514;19.218;2023-08-07T21:49:58;14.27;85.54
68189;DHT22;66299;47.514;19.218;2023-08-07T21:52:29;14.26;85.56
68189;DHT22;66299;47.514;19.218;2023-08-07T21:55:01;14.26;85.61
68189;DHT22;66299;47.514;19.218;2023-08-07T21:57:32;14.26;85.67
68189;DHT22;66299;47.514;19.218;2023-08-07T22:00:02;14.19;85.72
68189;DHT22;66299;47.514;19.218;2023-08-07T22:02:34;14.20;86.01
68189;DHT22;66299;47.514;19.218;2023-08-07T22:05:15;14.21;85.84
68189;DHT22;66299;47.514;19.218;2023-08-07T22:07:46;14.16;85.96
68189;DHT22;66299;47.514;19.218;2023-08-07T22:10:14;14.16;86.19
68189;DHT22;66299;47.514;19.218;2023-08-07T22:12:46;14.16;85.78
68189;DHT22;66299;47.514;19.218;2023-08-07T22:15:23;14.19;85.76
68189;DHT22;66299;47.514;19.218;2023-08-07T22:17:51;14.17;85.80
68189;DHT22;66299;47.514;19.218;2023-08-07T22:20:24;14.21;85.57
68189;DHT22;66299;47.514;19.218;2023-08-07T22:22:54;14.24;85.49
68189;DHT22;66299;47.514;19.218;2023-08-07T22:25:23;14.17;85.74
68189;DHT22;66299;47.514;19.218;2023-08-07T22:27:52;14.17;85.78
68189;DHT22;66299;47.514;19.218;2023-08-07T22:30:24;14.20;85.56
68189;DHT22;66299;47.514;19.218;2023-08-07T22:32:54;14.20;85.77
68189;DHT22;66299;47.514;19.218;2023-08-07T22:35:25;14.14;85.71
68189;DHT22;66299;47.514;19.218;2023-08-07T22:37:56;14.13;85.91
68189;DHT22;66299;47.514;19.218;2023-08-07T22:40:30;14.06;86.39
68189;DHT22;66299;47.514;19.218;2023-08-07T22:43:00;14.17;85.71
68189;DHT22;66299;47.514;19.218;2023-08-07T22:45:30;14.09;86.09
68189;DHT22;66299;47.514;19.218;2023-08-07T22:48:00;14.05;86.32
68189;DHT22;66299;47.514;19.218;2023-08-07T22:50:34;13.95;87.03
68189;DHT22;66299;47.514;19.218;2023-08-07T22:53:05;13.89;86.89
68189;DHT22;66299;47.514;19.218;2023-08-07T22:55:37;13.95;86.97
68189;DHT22;66299;47.514;19.218;2023-08-07T22:58:11;13.92;87.02
68189;DHT22;66299;47.514;19.218;2023-08-07T23:00:41;13.99;86.52
68189;DHT22;66299;47.514;19.218;2023-08-07T23:03:18;14.00;86.38
68189;DHT22;66299;47.514;19.218;2023-08-07T23:05:52;13.92;86.90
68189;DHT22;66299;47.514;19.218;2023-08-07T23:08:23;13.89;87.30
68189;DHT22;66299;47.514;19.218;2023-08-07T23:10:53;13.83;87.19
68189;DHT22;66299;47.514;19.218;2023-08-07T23:13:26;13.83;87.51
68189;DHT22;66299;47.514;19.218;2023-08-07T23:15:56;13.76;87.37
68189;DHT22;66299;47.514;19.218;2023-08-07T23:18:28;13.79;87.17
68189;DHT22;66299;47.514;19.218;2023-08-07T23:21:03;13.79;87.31
68189;DHT22;66299;47.514;19.218;2023-08-07T23:23:35;13.76;87.32
68189;DHT22;66299;47.514;19.218;2023-08-07T23:26:06;13.71;87.84
68189;DHT22;66299;47.514;19.218;2023-08-07T23:28:36;13.62;88.00
68189;DHT22;66299;47.514;19.218;2023-08-07T23:31:09;13.66;87.88
68189;DHT22;66299;47.514;19.218;2023-08-07T23:33:43;13.72;87.74
68189;DHT22;66299;47.514;19.218;2023-08-07T23:36:16;13.54;88.27
68189;DHT22;66299;47.514;19.218;2023-08-07T23:38:46;13.58;88.29
68189;DHT22;66299;47.514;19.218;2023-08-07T23:41:16;13.57;88.50
68189;DHT22;66299;47.514;19.218;2023-08-07T23:43:48;13.37;89.25
68189;DHT22;66299;47.514;19.218;2023-08-07T23:46:18;13.52;88.51
68189;DHT22;66299;47.514;19.218;2023-08-07T23:48:49;13.65;87.79
68189;DHT22;66299;47.514;19.218;2023-08-07T23:51:24;13.63;88.20
68189;DHT22;66299;47.514;19.218;2023-08-07T23:53:52;13.61;88.20
68189;DHT22;66299;47.514;19.218;2023-08-07T23:56:25;13.51;88.58
68189;DHT22;66299;47.514;19.218;2023-08-07T23:59:00;13.61;87.95
